Time;durP1;ratioP1;P1;durP2;ratioP2;P2;SDS_P1;SDS_P2;PMS_P1;PMS_P2;Temp;Humidity;BMP_temperature;BMP_pressure;BME280_temperature;BME280_humidity;BME280_pressure;Samples;Min_cycle;Max_cycle;Signal;HPM_P1;HPM_P2
2022/07/03 00:01:36;;;;;;;4.55;3.28;;;;;;;15.75;78.41;96544.03;4854238;29;20058;-79
2022/07/03 00:04:03;;;;;;;3.75;2.78;;;;;;;15.74;79.01;96553.44;4853688;29;20056;-78
2022/07/03 00:06:31;;;;;;;4.13;3.03;;;;;;;15.74;79.35;96547.94;4854092;29;20053;-80
2022/07/03 00:08:58;;;;;;;4.65;3.10;;;;;;;15.79;79.66;96544.97;4854095;29;20060;-79
2022/07/03 00:11:26;;;;;;;5.43;3.20;;;;;;;15.77;79.17;96541.78;4853757;29;20445;-79
2022/07/03 00:13:53;;;;;;;6.38;3.38;;;;;;;15.75;79.11;96549.53;4853939;29;20046;-79
2022/07/03 00:16:19;;;;;;;5.30;3.22;;;;;;;15.80;79.33;96557.53;4853810;29;20064;-79
2022/07/03 00:18:46;;;;;;;4.78;3.17;;;;;;;15.84;79.23;96558.44;4854160;29;20046;-79
2022/07/03 00:21:20;;;;;;;5.60;3.30;;;;;;;15.88;79.53;96559.34;4853904;29;20058;-79
2022/07/03 00:23:55;;;;;;;4.22;2.92;;;;;;;15.85;79.13;96554.56;4854114;29;20050;-78
2022/07/03 00:26:22;;;;;;;3.83;2.75;;;;;;;15.72;78.77;96552.19;4853455;29;20064;-78
2022/07/03 00:28:51;;;;;;;3.63;2.50;;;;;;;15.74;79.13;96555.38;4855105;29;20646;-78
2022/07/03 00:31:17;;;;;;;3.92;2.70;;;;;;;15.74;79.09;96544.41;4854312;29;20054;-78
2022/07/03 00:33:45;;;;;;;4.85;3.10;;;;;;;15.78;79.28;96553.56;4853637;29;20061;-78
2022/07/03 00:36:13;;;;;;;4.60;2.90;;;;;;;15.75;79.00;96546.78;4853553;29;20073;-79
2022/07/03 00:38:39;;;;;;;6.03;3.30;;;;;;;15.74;79.02;96547.94;4853619;29;20050;-79
2022/07/03 00:41:07;;;;;;;5.95;2.78;;;;;;;15.72;79.15;96544.75;4853469;29;20046;-79
2022/07/03 00:43:33;;;;;;;4.93;2.90;;;;;;;15.70;78.57;96541.53;4853990;29;20061;-79
2022/07/03 00:46:08;;;;;;;4.03;2.75;;;;;;;15.77;78.85;96541.78;4854556;29;20559;-79
2022/07/03 00:48:38;;;;;;;5.25;2.83;;;;;;;15.81;78.51;96534.41;4853703;29;20065;-78
2022/07/03 00:51:07;;;;;;;4.65;2.72;;;;;;;15.83;78.81;96540.38;4853561;29;20057;-78
2022/07/03 00:53:36;;;;;;;6.28;2.72;;;;;;;15.78;79.40;96532.38;4853829;29;20080;-78
2022/07/03 00:56:04;;;;;;;4.38;2.90;;;;;;;15.78;79.70;96529.63;4853731;29;20058;-80
2022/07/03 00:58:33;;;;;;;3.85;2.50;;;;;;;15.78;80.39;96537.06;4853678;29;20658;-78
2022/07/03 01:01:00;;;;;;;4.28;2.83;;;;;;;15.73;80.27;96540.84;4854104;29;20076;-79
2022/07/03 01:03:32;;;;;;;3.85;2.75;;;;;;;15.73;80.66;96549.09;4856046;29;20045;-79
2022/07/03 01:06:04;;;;;;;4.85;2.67;;;;;;;15.77;81.11;96539.03;4857191;29;20049;-79
2022/07/03 01:08:42;;;;;;;7.20;3.72;;;;;;;15.77;80.45;96535.47;4856651;29;20049;-78
2022/07/03 01:11:15;;;;;;;6.90;3.22;;;;;;;15.73;79.33;96535.38;4856414;29;20053;-79
2022/07/03 01:13:51;;;;;;;5.82;3.38;;;;;;;15.75;78.71;96533.06;4857005;29;20646;-79
2022/07/03 01:16:24;;;;;;;5.20;3.45;;;;;;;15.68;77.86;96530.13;4871516;29;20091;-79
2022/07/03 01:18:55;;;;;;;6.82;4.10;;;;;;;15.64;77.77;96531.94;4875745;29;20056;-79
2022/07/03 01:21:31;;;;;;;4.05;3.03;;;;;;;15.68;77.32;96527.38;4874964;29;20064;-78
2022/07/03 01:24:27;;;;;;;5.15;3.70;;;;;;;15.81;77.46;96531.66;4875159;29;20055;-78
2022/07/03 01:27:00;;;;;;;4.55;3.50;;;;;;;15.81;77.70;96526.19;4875250;29;20049;-79
2022/07/03 01:29:35;;;;;;;3.90;3.28;;;;;;;15.85;77.97;96521.59;4874797;29;20041;-78
2022/07/03 01:32:04;;;;;;;6.75;3.60;;;;;;;15.88;78.36;96523.66;4874682;29;20053;-77
2022/07/03 01:34:35;;;;;;;5.82;3.50;;;;;;;15.93;78.47;96517.13;4875580;29;20067;-80
2022/07/03 01:37:04;;;;;;;5.47;3.78;;;;;;;15.85;77.28;96521.59;4874601;29;20766;-80
2022/07/03 01:39:32;;;;;;;5.43;3.97;;;;;;;15.72;77.36;96517.31;4875273;29;20059;-80
2022/07/03 01:42:01;;;;;;;6.38;4.28;;;;;;;15.64;77.57;96527.25;4875047;29;20060;-80
2022/07/03 01:44:28;;;;;;;5.13;4.20;;;;;;;15.65;77.79;96523.34;4872670;29;20059;-79
2022/07/03 01:46:58;;;;;;;5.75;3.90;;;;;;;15.60;78.82;96525.50;4856438;29;20604;-78
2022/07/03 01:49:27;;;;;;;4.90;3.75;;;;;;;15.74;77.77;96520.50;4855932;29;20057;-78
2022/07/03 01:51:56;;;;;;;6.65;4.32;;;;;;;15.72;77.99;96517.31;4856316;29;20109;-80
2022/07/03 01:54:26;;;;;;;6.90;3.85;;;;;;;15.75;77.68;96522.06;4855786;29;20061;-78
2022/07/03 01:56:53;;;;;;;6.10;4.20;;;;;;;15.77;77.91;96519.81;4856311;29;20049;-79
2022/07/03 01:59:21;;;;;;;6.18;4.05;;;;;;;15.70;77.25;96519.56;4856097;29;20073;-80
2022/07/03 02:01:52;;;;;;;6.95;4.15;;;;;;;15.69;77.16;96525.41;4856439;29;20045;-81
2022/07/03 02:04:24;;;;;;;4.72;3.50;;;;;;;15.73;77.20;96524.38;4855715;29;20053;-79
2022/07/03 02:07:01;;;;;;;4.85;3.58;;;;;;;15.78;77.73;96526.88;4856178;29;20041;-78
2022/07/03 02:09:36;;;;;;;5.45;3.53;;;;;;;15.84;78.08;96525.50;4855869;29;20049;-79
2022/07/03 02:12:04;;;;;;;4.95;3.70;;;;;;;15.83;77.79;96523.91;4855934;29;20476;-79
2022/07/03 02:14:36;;;;;;;5.78;3.50;;;;;;;15.83;78.77;96523.91;4855793;29;20076;-79
2022/07/03 02:17:13;;;;;;;6.38;4.00;;;;;;;15.84;78.44;96524.69;4856699;29;20053;-79
2022/07/03 02:19:49;;;;;;;4.68;3.70;;;;;;;15.74;78.01;96515.00;4856382;29;20084;-78
2022/07/03 02:22:19;;;;;;;4.72;3.50;;;;;;;15.70;78.17;96513.28;4856332;29;20053;-78
2022/07/03 02:28:16;;;;;;;5.25;3.40;;;;;;;15.64;78.67;96520.97;4854320;29;20562;-79
2022/07/03 02:30:49;;;;;;;4.72;4.20;;;;;;;15.59;79.23;96523.91;4856798;29;20088;-78
2022/07/03 02:33:20;;;;;;;5.47;3.25;;;;;;;15.55;79.28;96523.00;4856365;29;20549;-79
2022/07/03 02:35:49;;;;;;;5.97;3.60;;;;;;;15.54;79.01;96526.91;4855907;29;20061;-80
2022/07/03 02:38:19;;;;;;;5.65;3.42;;;;;;;15.55;79.55;96531.25;4856092;29;20061;-81
2022/07/03 02:40:51;;;;;;;4.20;3.00;;;;;;;15.59;80.23;96532.16;4855763;29;20653;-78
2022/07/03 02:43:23;;;;;;;4.05;3.30;;;;;;;15.56;79.82;96536.41;4855201;29;20053;-78
2022/07/03 02:45:58;;;;;;;4.43;2.95;;;;;;;15.55;80.61;96536.72;4855513;29;20045;-78
2022/07/03 02:48:30;;;;;;;4.25;3.45;;;;;;;15.53;80.90;96541.78;4854326;29;20064;-81
2022/07/03 02:51:03;;;;;;;5.82;3.38;;;;;;;15.51;80.00;96542.13;4855355;29;20045;-80
2022/07/03 02:53:38;;;;;;;4.72;3.83;;;;;;;15.49;80.03;96546.34;4855039;29;20853;-78
2022/07/03 02:56:14;;;;;;;7.68;3.60;;;;;;;15.47;79.96;96537.66;4855068;29;20080;-80
2022/07/03 02:59:05;;;;;;;6.25;3.78;;;;;;;15.41;80.39;96539.84;4855274;29;20064;-79
2022/07/03 03:01:42;;;;;;;5.00;3.20;;;;;;;15.35;80.55;96538.50;4854839;29;20124;-79
2022/07/03 03:04:12;;;;;;;4.47;3.50;;;;;;;15.36;80.95;96532.66;4854255;29;20057;-79
2022/07/03 03:06:43;;;;;;;4.43;3.40;;;;;;;15.34;80.22;96543.16;4854698;29;20060;-79
2022/07/03 03:09:20;;;;;;;4.72;3.30;;;;;;;15.31;80.80;96545.81;4854733;29;20482;-79
2022/07/03 03:11:48;;;;;;;5.05;3.25;;;;;;;15.27;80.96;96553.13;4851152;29;20159;-79
2022/07/03 03:14:18;;;;;;;4.78;3.25;;;;;;;15.30;81.31;96552.44;4863201;29;20462;-78
2022/07/03 03:16:51;;;;;;;6.72;3.50;;;;;;;15.28;81.51;96552.75;4855047;29;20055;-78
2022/07/03 03:19:21;;;;;;;4.72;3.25;;;;;;;15.27;81.21;96559.41;4854339;29;20395;-78
2022/07/03 03:21:58;;;;;;;4.13;3.20;;;;;;;15.30;81.64;96555.97;4854979;29;20425;-79
2022/07/03 03:24:26;;;;;;;5.85;3.40;;;;;;;15.17;80.81;96551.63;4852369;29;20778;-79
2022/07/03 03:26:52;;;;;;;4.35;3.22;;;;;;;15.12;80.46;96554.59;4855001;29;20057;-79
2022/07/03 03:29:19;;;;;;;4.50;3.83;;;;;;;15.13;79.96;96550.69;4854143;29;20051;-80
2022/07/03 03:31:47;;;;;;;3.53;2.85;;;;;;;15.17;80.26;96561.78;4854496;29;20106;-78
2022/07/03 03:34:15;;;;;;;4.03;3.20;;;;;;;15.20;80.51;96556.44;4854077;29;20053;-79
2022/07/03 03:36:43;;;;;;;4.82;3.40;;;;;;;15.24;81.06;96559.28;4854527;29;20061;-79
2022/07/03 03:39:09;;;;;;;4.38;3.47;;;;;;;15.29;81.00;96559.84;4853855;29;20064;-79
2022/07/03 03:41:35;;;;;;;5.55;3.20;;;;;;;15.23;80.41;96561.22;4854772;29;20056;-79
2022/07/03 03:44:02;;;;;;;3.65;2.78;;;;;;;15.20;80.42;96556.44;4854077;29;20081;-80
2022/07/03 03:46:28;;;;;;;5.22;2.90;;;;;;;15.23;80.30;96560.41;4854476;29;20387;-78
2022/07/03 03:48:57;;;;;;;6.03;3.03;;;;;;;15.22;80.59;96559.63;4854272;29;20041;-80
2022/07/03 03:51:24;;;;;;;3.60;2.75;;;;;;;15.20;80.76;96561.94;4853789;29;20417;-80
2022/07/03 03:53:50;;;;;;;5.50;3.00;;;;;;;15.24;81.03;96562.81;4854275;29;20045;-78
2022/07/03 03:56:16;;;;;;;3.80;2.95;;;;;;;15.28;81.42;96562.94;4853781;29;20525;-80
2022/07/03 03:58:44;;;;;;;7.22;3.22;;;;;;;15.33;81.69;96566.25;4854806;29;20053;-78
2022/07/03 04:01:12;;;;;;;3.95;2.95;;;;;;;15.31;81.73;96574.03;4855394;29;20054;-79
2022/07/03 04:03:40;;;;;;;4.72;2.92;;;;;;;15.30;82.07;96577.94;4858158;29;20049;-78
2022/07/03 04:06:08;;;;;;;5.07;2.90;;;;;;;15.35;83.32;96563.97;4855023;29;20053;-79
2022/07/03 04:08:35;;;;;;;3.00;2.67;;;;;;;15.43;83.80;96570.47;4854619;29;20053;-79
2022/07/03 04:11:01;;;;;;;5.03;2.83;;;;;;;15.48;83.98;96577.69;4854379;29;20274;-79
2022/07/03 04:13:28;;;;;;;4.65;3.20;;;;;;;15.49;83.60;96580.06;4854359;29;20053;-80
2022/07/03 04:15:55;;;;;;;4.90;3.15;;;;;;;15.53;83.27;96589.22;4854514;29;20054;-78
2022/07/03 04:18:22;;;;;;;5.25;3.00;;;;;;;15.55;82.85;96586.94;4853958;29;20060;-80
2022/07/03 04:20:48;;;;;;;4.22;2.70;;;;;;;15.61;82.85;96587.53;4854322;29;20049;-79
2022/07/03 04:23:16;;;;;;;4.50;2.88;;;;;;;15.67;83.19;96590.88;4853973;29;20046;-78
2022/07/03 04:25:43;;;;;;;4.63;3.15;;;;;;;15.66;83.68;96579.09;4853922;29;20061;-77
2022/07/03 04:28:10;;;;;;;3.63;2.88;;;;;;;15.68;82.43;96590.50;4853494;29;20061;-78
2022/07/03 04:30:36;;;;;;;5.35;3.00;;;;;;;15.70;81.89;96590.97;4853904;29;20072;-78
2022/07/03 04:33:03;;;;;;;5.47;3.47;;;;;;;15.68;81.00;96592.47;4853642;29;20057;-79
2022/07/03 04:35:29;;;;;;;3.78;2.67;;;;;;;15.73;80.81;96590.28;4853810;29;20054;-79
2022/07/03 04:37:56;;;;;;;4.93;2.80;;;;;;;15.77;81.38;96593.94;4856337;29;20057;-79
2022/07/03 04:40:23;;;;;;;4.50;3.03;;;;;;;15.77;81.53;96591.19;4857414;29;20049;-79
2022/07/03 04:42:50;;;;;;;4.00;3.17;;;;;;;15.80;81.71;96587.75;4858263;29;20595;-79
2022/07/03 04:45:16;;;;;;;4.10;2.63;;;;;;;15.85;81.58;96582.00;4857243;29;20060;-79
2022/07/03 04:47:43;;;;;;;4.05;2.70;;;;;;;15.93;82.06;96582.25;4857620;29;20517;-79
2022/07/03 04:50:10;;;;;;;4.97;3.00;;;;;;;15.99;83.03;96580.84;4857004;29;20509;-79
2022/07/03 04:52:36;;;;;;;4.68;3.30;;;;;;;15.99;81.37;96591.84;4857396;29;20049;-78
2022/07/03 04:55:03;;;;;;;6.38;3.13;;;;;;;15.97;80.56;96589.41;4856870;29;20057;-81
2022/07/03 04:57:30;;;;;;;4.82;3.25;;;;;;;16.04;80.63;96589.66;4857496;29;20076;-81
2022/07/03 04:59:57;;;;;;;3.47;2.70;;;;;;;16.14;81.61;96591.09;4857353;29;20050;-80
2022/07/03 05:02:23;;;;;;;5.20;3.17;;;;;;;16.16;81.89;96597.03;4856907;29;20072;-80
2022/07/03 05:04:50;;;;;;;7.68;3.00;;;;;;;16.05;80.53;96595.94;4856853;29;20057;-80
2022/07/03 05:07:16;;;;;;;5.90;3.22;;;;;;;16.17;80.24;96601.38;4856619;29;20137;-80
2022/07/03 05:09:43;;;;;;;5.30;3.50;;;;;;;15.98;80.28;96601.22;4857070;29;20500;-82
2022/07/03 05:12:09;;;;;;;5.65;2.80;;;;;;;16.18;80.00;96600.22;4856467;29;20061;-78
2022/07/03 05:14:37;;;;;;;3.40;2.85;;;;;;;16.24;79.59;96604.34;4856567;29;20049;-79
2022/07/03 05:17:04;;;;;;;5.20;2.72;;;;;;;16.32;79.68;96600.66;4856424;29;20054;-79
2022/07/03 05:19:30;;;;;;;3.53;2.50;;;;;;;16.42;79.58;96605.66;4857190;29;20052;-79
2022/07/03 05:21:57;;;;;;;3.28;2.33;;;;;;;16.50;80.32;96611.38;4856766;29;20049;-78
2022/07/03 05:24:23;;;;;;;6.13;2.88;;;;;;;16.56;80.94;96604.47;4856352;29;20053;-78
2022/07/03 05:26:50;;;;;;;4.22;2.63;;;;;;;16.62;80.87;96603.06;4856866;29;20145;-78
2022/07/03 05:29:17;;;;;;;4.53;2.50;;;;;;;16.61;79.69;96601.47;4856249;29;20057;-78
2022/07/03 05:31:44;;;;;;;5.57;2.60;;;;;;;16.71;79.48;96606.50;4856434;29;20056;-79
2022/07/03 05:34:11;;;;;;;3.25;2.70;;;;;;;16.81;79.87;96605.16;4856099;29;20053;-80
2022/07/03 05:36:38;;;;;;;4.97;2.47;;;;;;;16.84;79.69;96605.25;4856539;29;20060;-78
2022/07/03 05:41:49;;;;;;;2.83;2.53;;;;;;;16.97;80.55;96613.47;4856755;29;20060;-78
2022/07/03 05:44:15;;;;;;;5.63;3.40;;;;;;;17.14;80.46;96613.91;4856167;29;20080;-78
2022/07/03 05:46:42;;;;;;;5.90;3.20;;;;;;;17.15;80.42;96607.25;4857540;29;20612;-78
2022/07/03 05:49:09;;;;;;;4.20;2.40;;;;;;;17.32;80.54;96614.34;4857526;29;20057;-81
2022/07/03 05:51:36;;;;;;;6.00;3.95;;;;;;;17.35;80.75;96618.34;4856356;29;20774;-78
2022/07/03 05:54:02;;;;;;;6.95;5.97;;;;;;;17.47;80.48;96621.81;4855789;29;20489;-79
2022/07/03 05:56:29;;;;;;;4.38;2.90;;;;;;;17.53;81.14;96618.78;4856653;29;20413;-78
2022/07/03 05:58:55;;;;;;;5.50;2.90;;;;;;;17.65;81.22;96621.47;4856569;29;20061;-77
2022/07/03 06:01:23;;;;;;;4.72;2.92;;;;;;;17.71;82.01;96631.03;4855752;29;20160;-77
2022/07/03 06:03:49;;;;;;;4.22;3.13;;;;;;;17.81;82.17;96625.00;4856678;29;20052;-78
2022/07/03 06:06:17;;;;;;;3.47;2.53;;;;;;;17.97;81.99;96619.47;4855641;29;20067;-78
2022/07/03 06:08:44;;;;;;;4.75;2.97;;;;;;;18.09;80.99;96624.06;4856074;29;20064;-79
2022/07/03 06:11:10;;;;;;;3.72;2.80;;;;;;;18.26;80.39;96623.63;4855405;29;20056;-78
2022/07/03 06:13:36;;;;;;;3.63;2.80;;;;;;;18.43;80.55;96620.47;4855865;29;20060;-78
2022/07/03 06:16:03;;;;;;;4.00;2.60;;;;;;;18.54;79.81;96626.22;4855415;29;20049;-81
2022/07/03 06:18:30;;;;;;;6.07;3.22;;;;;;;18.65;79.71;96620.91;4855911;29;20057;-77
2022/07/03 06:20:56;;;;;;;4.95;3.03;;;;;;;18.79;78.73;96626.72;4856136;29;20069;-78
2022/07/03 06:23:24;;;;;;;4.82;2.70;;;;;;;18.89;79.34;96623.34;4855559;29;20517;-78
2022/07/03 06:25:51;;;;;;;3.80;2.80;;;;;;;18.98;78.93;96626.69;4856237;29;20045;-79
2022/07/03 06:28:17;;;;;;;4.47;2.58;;;;;;;19.13;78.72;96626.97;4854446;29;20058;-78
2022/07/03 06:30:44;;;;;;;3.97;2.65;;;;;;;19.26;79.02;96625.59;4854781;29;20049;-78
2022/07/03 06:33:10;;;;;;;2.88;2.58;;;;;;;19.36;78.60;96627.75;4855430;29;20057;-79
2022/07/03 06:35:37;;;;;;;3.78;2.35;;;;;;;19.55;78.39;96633.22;4855325;29;20057;-79
2022/07/03 06:38:03;;;;;;;2.85;2.40;;;;;;;19.52;79.02;96628.44;4855202;29;20061;-81
2022/07/03 06:40:31;;;;;;;3.67;2.28;;;;;;;19.66;77.07;96622.38;4855363;29;20057;-78
2022/07/03 06:42:58;;;;;;;4.43;2.47;;;;;;;19.69;75.87;96627.16;4855624;29;20045;-78
2022/07/03 06:45:24;;;;;;;3.63;2.17;;;;;;;19.80;76.17;96616.28;4855046;29;20056;-79
2022/07/03 06:47:51;;;;;;;4.03;2.50;;;;;;;19.89;76.36;96619.59;4863599;29;20514;-81
2022/07/03 06:50:17;;;;;;;4.60;2.40;;;;;;;20.05;76.37;96622.97;4873031;29;20105;-80
2022/07/03 06:52:44;;;;;;;3.28;2.40;;;;;;;20.00;76.89;96619.75;4871702;29;20057;-83
2022/07/03 06:55:14;;;;;;;3.53;2.50;;;;;;;20.16;76.83;96616.81;4872943;29;20060;-82
2022/07/03 06:57:44;;;;;;;3.05;2.30;;;;;;;20.20;77.61;96623.16;4873250;29;20053;-82
2022/07/03 07:00:12;;;;;;;2.60;2.30;;;;;;;20.17;75.81;96618.41;4871043;29;20141;-83
2022/07/03 07:02:40;;;;;;;2.50;2.13;;;;;;;20.26;76.41;96627.22;4871048;29;20049;-82
2022/07/03 07:05:08;;;;;;;3.13;2.38;;;;;;;20.39;75.22;96623.03;4869582;29;20061;-83
2022/07/03 07:07:35;;;;;;;5.43;2.13;;;;;;;20.54;73.11;96629.59;4869511;29;20053;-82
2022/07/03 07:10:03;;;;;;;4.40;2.08;;;;;;;20.69;71.56;96631.34;4876884;29;20052;-81
2022/07/03 07:12:30;;;;;;;2.78;2.13;;;;;;;20.71;71.41;96620.69;4870614;29;20061;-84
2022/07/03 07:14:58;;;;;;;2.78;1.90;;;;;;;20.90;72.64;96630.81;4869240;29;20053;-82
2022/07/03 07:17:32;;;;;;;4.40;2.22;;;;;;;21.06;72.88;96631.38;4871994;29;20045;-83
2022/07/03 07:19:59;;;;;;;3.25;2.20;;;;;;;21.21;71.43;96632.31;4869785;29;20053;-82
2022/07/03 07:22:26;;;;;;;2.30;1.98;;;;;;;21.24;70.17;96626.00;4868528;29;20071;-84
2022/07/03 07:24:52;;;;;;;4.82;2.38;;;;;;;21.37;69.77;96629.34;4873423;29;20054;-84
2022/07/03 07:27:19;;;;;;;2.92;2.25;;;;;;;21.40;68.70;96623.00;4875067;29;20082;-82
2022/07/03 07:29:48;;;;;;;3.90;2.10;;;;;;;21.49;70.88;96626.25;4875500;29;20070;-83
2022/07/03 07:32:21;;;;;;;3.63;2.13;;;;;;;21.68;69.37;96627.22;4881133;29;20053;-82
2022/07/03 07:34:49;;;;;;;1.90;1.70;;;;;;;21.71;70.12;96623.66;4879128;29;20041;-84
2022/07/03 07:39:56;;;;;;;2.35;1.70;;;;;;;21.99;68.04;96612.81;4873115;29;20048;-82
2022/07/03 07:42:27;;;;;;;3.78;2.05;;;;;;;21.97;68.90;96617.13;4869423;29;20056;-83
2022/07/03 07:44:54;;;;;;;2.13;1.70;;;;;;;22.00;68.39;96625.47;4871869;29;20042;-83
2022/07/03 07:47:22;;;;;;;2.97;1.90;;;;;;;22.18;70.47;96617.28;4865880;29;20049;-82
2022/07/03 07:49:49;;;;;;;2.00;1.50;;;;;;;22.31;67.61;96620.56;4862101;29;20527;-81
2022/07/03 07:52:16;;;;;;;2.53;1.85;;;;;;;22.50;66.94;96617.47;4860228;29;20056;-82
2022/07/03 07:54:43;;;;;;;3.05;1.65;;;;;;;22.57;67.34;96619.50;4858242;29;20051;-76
2022/07/03 07:57:09;;;;;;;2.15;1.77;;;;;;;22.65;67.46;96623.88;4843024;29;20053;-75
2022/07/03 07:59:36;;;;;;;1.58;1.45;;;;;;;22.78;64.28;96625.13;4853376;29;20083;-75
2022/07/03 08:07:28;;;;;;;2.08;1.50;;;;;;;23.08;61.79;96622.09;4831789;29;20489;-77
2022/07/03 08:09:55;;;;;;;1.73;1.55;;;;;;;23.18;62.11;96623.28;4853313;29;20065;-78
2022/07/03 08:12:21;;;;;;;3.95;1.60;;;;;;;23.29;63.68;96628.88;4852035;29;20064;-78
2022/07/03 08:14:48;;;;;;;4.28;1.30;;;;;;;23.49;59.86;96620.94;4853490;29;20190;-77
2022/07/03 08:17:14;;;;;;;1.30;1.20;;;;;;;23.90;58.41;96624.94;4853083;29;20045;-77
2022/07/03 08:19:41;;;;;;;2.72;1.63;;;;;;;24.44;59.28;96619.31;4853683;29;20653;-78
2022/07/03 08:22:09;;;;;;;2.47;1.20;;;;;;;24.99;59.34;96621.47;4853351;29;20085;-75
2022/07/03 08:24:37;;;;;;;1.88;1.42;;;;;;;25.23;57.92;96615.00;4853429;29;20086;-76
2022/07/03 08:27:04;;;;;;;3.33;1.50;;;;;;;25.46;52.02;96613.63;4853754;29;20209;-75
2022/07/03 08:29:31;;;;;;;3.08;1.50;;;;;;;25.50;51.77;96617.19;4853255;29;20054;-76
2022/07/03 08:31:57;;;;;;;2.55;1.50;;;;;;;25.60;57.10;96610.75;4853729;29;20041;-76
2022/07/03 08:34:24;;;;;;;2.13;1.52;;;;;;;25.62;54.70;96622.28;4852349;29;20136;-76
2022/07/03 08:36:50;;;;;;;2.05;1.55;;;;;;;25.93;53.41;96622.47;4853497;29;20056;-76
2022/07/03 08:39:18;;;;;;;2.47;1.50;;;;;;;26.06;51.89;96615.16;4852607;29;20073;-75
2022/07/03 08:41:46;;;;;;;1.50;1.40;;;;;;;25.83;50.99;96612.97;4853727;29;20061;-77
2022/07/03 08:44:13;;;;;;;1.90;1.40;;;;;;;25.81;51.01;96611.81;4852562;29;20874;-76
2022/07/03 08:46:40;;;;;;;2.33;1.30;;;;;;;25.82;51.79;96610.59;4853002;29;20045;-76
2022/07/03 08:49:07;;;;;;;2.47;1.98;;;;;;;25.93;53.44;96616.88;4852583;29;20054;-75
2022/07/03 08:51:35;;;;;;;2.53;1.52;;;;;;;25.97;53.39;96606.47;4853050;29;20815;-77
2022/07/03 08:54:02;;;;;;;3.15;1.90;;;;;;;26.24;53.02;96604.59;4852865;29;20684;-75
2022/07/03 08:56:30;;;;;;;2.22;1.55;;;;;;;26.40;56.14;96606.03;4853093;29;20700;-77
2022/07/03 08:58:58;;;;;;;1.40;1.30;;;;;;;26.59;52.78;96605.47;4853338;29;20045;-76
2022/07/03 09:01:26;;;;;;;1.77;1.40;;;;;;;26.39;52.02;96604.47;4852488;29;20084;-77
2022/07/03 09:03:53;;;;;;;2.83;1.50;;;;;;;26.39;53.53;96598.88;4852133;29;20060;-77
2022/07/03 09:06:20;;;;;;;2.13;1.73;;;;;;;26.60;52.82;96601.44;4852345;29;20060;-75
2022/07/03 09:08:47;;;;;;;3.40;1.70;;;;;;;26.67;48.42;96604.16;4852778;29;20050;-76
2022/07/03 09:11:14;;;;;;;2.05;1.40;;;;;;;26.47;47.73;96600.41;4852435;29;20058;-76
2022/07/03 09:13:42;;;;;;;1.70;1.30;;;;;;;26.54;48.73;96603.13;4852675;29;20052;-76
2022/07/03 09:16:15;;;;;;;1.65;1.40;;;;;;;26.53;49.72;96599.53;4852517;29;20081;-76
2022/07/03 09:18:44;;;;;;;3.20;1.80;;;;;;;26.52;53.43;96599.97;4852499;29;20163;-76
2022/07/03 09:21:10;;;;;;;1.30;1.20;;;;;;;26.65;49.04;96598.19;4852693;29;20057;-78
2022/07/03 09:23:38;;;;;;;1.63;1.50;;;;;;;26.54;52.35;96594.75;4853933;29;20056;-76
2022/07/03 09:26:06;;;;;;;2.40;1.50;;;;;;;26.76;51.67;96596.06;4855565;29;20732;-76
2022/07/03 09:28:45;;;;;;;2.33;1.40;;;;;;;26.93;52.01;96593.44;4856107;29;20058;-75
2022/07/03 09:31:13;;;;;;;1.67;1.33;;;;;;;26.87;49.26;96595.13;4854642;29;20144;-76
2022/07/03 09:33:51;;;;;;;3.20;1.70;;;;;;;26.83;52.72;96594.38;4856087;29;20056;-76
2022/07/03 09:36:18;;;;;;;1.98;1.58;;;;;;;26.98;49.58;96598.56;4855240;29;20060;-76
2022/07/03 09:38:45;;;;;;;2.38;1.50;;;;;;;27.02;47.78;96593.72;4850875;29;20646;-77
2022/07/03 09:41:12;;;;;;;2.33;1.30;;;;;;;26.95;49.00;96599.44;4864567;29;20100;-77
2022/07/03 09:43:44;;;;;;;2.47;1.38;;;;;;;26.75;44.52;96591.69;4855422;29;20049;-77
2022/07/03 09:46:11;;;;;;;4.38;1.30;;;;;;;26.83;45.04;96592.38;4855645;29;20055;-76
2022/07/03 09:48:40;;;;;;;1.42;1.10;;;;;;;26.86;47.70;96593.56;4855605;29;20046;-75
2022/07/03 09:51:16;;;;;;;1.60;1.05;;;;;;;26.98;44.00;96595.78;4855130;29;20057;-77
2022/07/03 09:53:47;;;;;;;1.00;0.90;;;;;;;26.73;41.31;96594.13;4854864;29;20133;-77
2022/07/03 09:56:16;;;;;;;1.95;1.10;;;;;;;26.56;45.14;96597.13;4854969;29;20061;-77
2022/07/03 09:59:00;;;;;;;1.35;0.80;;;;;;;26.76;40.66;96601.66;4855561;29;20077;-74
2022/07/03 10:01:27;;;;;;;2.85;1.00;;;;;;;26.95;47.20;96591.03;4855155;29;20042;-75
2022/07/03 10:03:55;;;;;;;2.85;0.90;;;;;;;27.06;40.68;96591.69;4855402;29;20081;-75
2022/07/03 10:06:21;;;;;;;1.55;0.98;;;;;;;27.36;39.59;96598.47;4855018;29;20057;-75
2022/07/03 10:08:50;;;;;;;2.38;1.20;;;;;;;27.30;41.43;96593.38;4855422;29;20060;-75
2022/07/03 10:11:16;;;;;;;4.13;0.90;;;;;;;27.28;37.99;96592.97;4854768;29;20085;-76
2022/07/03 10:13:45;;;;;;;2.75;0.82;;;;;;;27.14;39.13;96598.78;4855381;29;20053;-76
2022/07/03 10:16:12;;;;;;;0.95;0.85;;;;;;;27.19;39.21;96595.50;4854431;29;20754;-75
2022/07/03 10:18:45;;;;;;;1.17;0.95;;;;;;;26.90;38.40;96588.72;4855403;29;20506;-75
2022/07/03 10:21:14;;;;;;;1.33;0.98;;;;;;;27.16;43.31;96584.41;4854862;29;20084;-75
2022/07/03 10:23:42;;;;;;;1.08;0.90;;;;;;;27.33;41.94;96576.94;4854828;29;20068;-77
2022/07/03 10:26:09;;;;;;;1.20;0.85;;;;;;;27.55;40.84;96583.78;4854684;29;20058;-75
2022/07/03 10:28:37;;;;;;;1.83;1.00;;;;;;;27.45;36.49;96579.16;4855278;29;20049;-76
2022/07/03 10:31:05;;;;;;;0.90;0.77;;;;;;;27.50;39.87;96575.88;4854606;29;20061;-76
2022/07/03 10:33:36;;;;;;;1.92;0.90;;;;;;;27.54;39.57;96577.41;4854931;29;20049;-77
2022/07/03 10:36:03;;;;;;;0.88;0.75;;;;;;;27.69;43.74;96569.56;4853651;29;20143;-76
2022/07/03 10:38:39;;;;;;;2.53;0.80;;;;;;;27.81;39.99;96566.19;4854563;29;20509;-75
2022/07/03 10:46:41;;;;;;;1.33;0.95;;;;;;;27.90;44.77;96565.63;4854714;29;20498;-76
2022/07/03 10:49:08;;;;;;;0.70;0.63;;;;;;;27.94;39.68;96557.19;4854007;29;20053;-77
2022/07/03 10:51:56;;;;;;;1.27;1.00;;;;;;;27.64;40.83;96558.84;4854473;29;20494;-75
2022/07/03 10:54:23;;;;;;;3.95;0.80;;;;;;;27.58;40.03;96555.75;4854052;29;20414;-75
2022/07/03 10:57:23;;;;;;;2.88;0.70;;;;;;;27.55;42.64;96555.81;4854977;29;20060;-76
2022/07/03 11:00:08;;;;;;;2.05;0.90;;;;;;;27.77;43.83;96562.69;4853995;29;20046;-77
2022/07/03 11:02:38;;;;;;;1.85;0.88;;;;;;;27.82;40.76;96567.78;4854325;29;20072;-76
2022/07/03 11:05:25;;;;;;;2.45;0.90;;;;;;;27.88;37.96;96567.25;4853987;29;20081;-76
2022/07/03 11:08:13;;;;;;;1.58;0.90;;;;;;;27.83;40.70;96554.59;4854187;29;20502;-75
2022/07/03 11:10:41;;;;;;;1.08;0.90;;;;;;;27.85;41.32;96557.72;4854028;29;20819;-76
2022/07/03 11:13:15;;;;;;;1.95;0.80;;;;;;;27.69;38.68;96554.78;4853800;29;20133;-77
2022/07/03 11:15:43;;;;;;;0.93;0.80;;;;;;;27.64;34.60;96546.88;4854094;29;20051;-75
2022/07/03 11:18:26;;;;;;;1.50;0.70;;;;;;;27.69;37.55;96544.38;4853724;29;20410;-74
2022/07/03 11:21:08;;;;;;;2.70;0.80;;;;;;;27.82;40.49;96541.78;4854122;29;20053;-75
2022/07/03 11:23:46;;;;;;;1.08;0.80;;;;;;;28.02;39.17;96539.03;4853971;29;20049;-75
2022/07/03 11:26:23;;;;;;;0.90;0.80;;;;;;;28.03;36.12;96543.41;4853623;29;20073;-75
2022/07/03 11:28:54;;;;;;;1.50;1.08;;;;;;;28.03;36.11;96535.00;4854171;29;20060;-76
2022/07/03 11:31:23;;;;;;;1.45;1.08;;;;;;;27.87;34.57;96530.09;4853640;29;20057;-75
2022/07/03 11:33:58;;;;;;;1.52;0.90;;;;;;;27.97;36.03;96525.53;4854121;29;20566;-76
2022/07/03 11:36:26;;;;;;;2.20;1.10;;;;;;;28.02;36.75;96530.63;4853544;29;20049;-77
2022/07/03 11:39:08;;;;;;;1.52;0.75;;;;;;;28.09;37.22;96530.50;4853884;29;20045;-75
2022/07/03 11:41:47;;;;;;;2.30;0.65;;;;;;;28.12;35.38;96524.03;4853501;29;20660;-77
2022/07/03 11:44:20;;;;;;;0.60;0.60;;;;;;;28.07;37.38;96524.53;4853035;29;20042;-77
2022/07/03 11:46:51;;;;;;;1.08;0.80;;;;;;;27.98;35.72;96513.09;4853197;29;20073;-78
2022/07/03 11:49:22;;;;;;;1.90;0.98;;;;;;;28.10;37.25;96523.69;4853068;29;20054;-78
2022/07/03 11:52:00;;;;;;;1.50;0.90;;;;;;;28.06;35.18;96518.16;4853326;29;20049;-77
2022/07/03 11:54:30;;;;;;;1.60;1.00;;;;;;;28.07;40.83;96505.72;4852975;29;20819;-77
2022/07/03 11:56:56;;;;;;;1.40;0.90;;;;;;;28.02;41.78;96517.41;4853582;29;20052;-77
2022/07/03 11:59:23;;;;;;;0.95;0.70;;;;;;;28.00;39.61;96505.09;4853295;29;20053;-78
2022/07/03 12:01:49;;;;;;;1.10;0.80;;;;;;;28.11;39.61;96502.88;4853391;29;20054;-78
2022/07/03 12:04:17;;;;;;;0.88;0.65;;;;;;;28.06;35.49;96511.75;4860991;29;20049;-81